Time;durP1;ratioP1;P1;durP2;ratioP2;P2;SDS_P1;SDS_P2;PMS_P1;PMS_P2;Temp;Humidity;BMP_temperature;BMP_pressure;BME280_temperature;BME280_humidity;BME280_pressure;Samples;Min_cycle;Max_cycle;Signal;HPM_P1;HPM_P2
2021/05/04 00:01:11;;;;;;;4.35;2.60;;;;;;;;;;6185695;23;20001;-47
2021/05/04 00:03:37;;;;;;;3.40;2.10;;;;;;;;;;6185489;23;20072;-47
2021/05/04 00:06:03;;;;;;;3.15;2.30;;;;;;;;;;6185173;23;20337;-47
2021/05/04 00:08:30;;;;;;;4.97;2.47;;;;;;;;;;6185025;23;20001;-47
2021/05/04 00:10:56;;;;;;;5.40;2.47;;;;;;;;;;6185894;23;20139;-47
2021/05/04 00:13:21;;;;;;;3.25;2.60;;;;;;;;;;6185103;23;20036;-47
2021/05/04 00:15:48;;;;;;;4.63;2.90;;;;;;;;;;6185419;23;20473;-47
2021/05/04 00:18:14;;;;;;;7.15;3.38;;;;;;;;;;6185548;23;20007;-48
2021/05/04 00:20:40;;;;;;;4.13;2.40;;;;;;;;;;6184241;23;20009;-47
2021/05/04 00:23:05;;;;;;;6.55;2.80;;;;;;;;;;6185764;23;20067;-47
2021/05/04 00:25:32;;;;;;;5.47;2.58;;;;;;;;;;6184799;23;20005;-47
2021/05/04 00:27:58;;;;;;;5.40;3.13;;;;;;;;;;6185661;23;19997;-47
2021/05/04 00:30:24;;;;;;;3.35;2.25;;;;;;;;;;6184615;23;20520;-47
2021/05/04 00:32:50;;;;;;;4.65;2.83;;;;;;;;;;6185639;23;20005;-47
2021/05/04 00:35:16;;;;;;;4.78;2.83;;;;;;;;;;6184523;23;20282;-46
2021/05/04 00:37:42;;;;;;;4.10;2.80;;;;;;;;;;6185162;23;20019;-47
2021/05/04 00:40:08;;;;;;;6.05;2.58;;;;;;;;;;6184768;23;20037;-47
2021/05/04 00:42:34;;;;;;;6.88;2.10;;;;;;;;;;6185057;23;20290;-47
2021/05/04 00:45:00;;;;;;;5.15;2.40;;;;;;;;;;6185299;23;20009;-46
2021/05/04 00:47:26;;;;;;;6.00;2.90;;;;;;;;;;6185004;23;20011;-47
2021/05/04 00:49:52;;;;;;;4.97;2.35;;;;;;;;;;6184361;23;20448;-47
2021/05/04 00:52:18;;;;;;;4.32;2.58;;;;;;;;;;6185380;23;20008;-47
2021/05/04 00:54:45;;;;;;;4.80;2.75;;;;;;;;;;6186397;23;20283;-47
2021/05/04 00:57:12;;;;;;;4.70;2.85;;;;;;;;;;6186246;23;20103;-47
2021/05/04 00:59:39;;;;;;;5.60;3.30;;;;;;;;;;6186621;23;19997;-47
2021/05/04 01:02:05;;;;;;;4.40;2.58;;;;;;;;;;6187042;23;20301;-46
2021/05/04 01:04:32;;;;;;;4.78;2.78;;;;;;;;;;6186690;23;20024;-46
2021/05/04 01:06:58;;;;;;;4.97;3.08;;;;;;;;;;6186859;23;20011;-48
2021/05/04 01:09:24;;;;;;;7.60;2.90;;;;;;;;;;6186682;23;20080;-47
2021/05/04 01:11:50;;;;;;;4.68;2.65;;;;;;;;;;6186885;23;20004;-46
2021/05/04 01:14:16;;;;;;;4.45;3.00;;;;;;;;;;6160180;23;20028;-47
2021/05/04 01:16:49;;;;;;;8.57;3.33;;;;;;;;;;6186837;23;20012;-47
2021/05/04 01:19:18;;;;;;;6.50;3.22;;;;;;;;;;6186248;23;20315;-47
2021/05/04 01:21:44;;;;;;;6.40;2.90;;;;;;;;;;6186913;23;20016;-46
2021/05/04 01:24:11;;;;;;;6.40;3.58;;;;;;;;;;6186991;23;20063;-47
2021/05/04 01:26:40;;;;;;;6.03;3.25;;;;;;;;;;6186704;23;20036;-46
2021/05/04 01:29:06;;;;;;;7.22;2.80;;;;;;;;;;6186461;23;20016;-47
2021/05/04 01:31:32;;;;;;;6.45;3.40;;;;;;;;;;6186429;23;20364;-47
2021/05/04 01:33:59;;;;;;;4.82;3.13;;;;;;;;;;6186893;23;20004;-47
2021/05/04 01:36:25;;;;;;;5.45;3.35;;;;;;;;;;6186426;23;20009;-47
2021/05/04 01:38:51;;;;;;;6.82;3.53;;;;;;;;;;6185920;23;20005;-47
2021/05/04 01:41:17;;;;;;;5.75;3.13;;;;;;;;;;6186494;23;20025;-47
2021/05/04 01:43:43;;;;;;;8.40;3.80;;;;;;;;;;6186854;23;20030;-47
2021/05/04 01:46:09;;;;;;;7.43;3.80;;;;;;;;;;6186135;23;20476;-46
2021/05/04 01:48:35;;;;;;;6.32;3.75;;;;;;;;;;6186394;23;20085;-46
2021/05/04 01:51:01;;;;;;;5.82;3.47;;;;;;;;;;6186635;23;20081;-47
2021/05/04 01:53:27;;;;;;;6.40;3.90;;;;;;;;;;6186632;23;19993;-46
2021/05/04 01:55:53;;;;;;;6.88;3.63;;;;;;;;;;6186424;23;20024;-47
2021/05/04 01:58:19;;;;;;;6.93;3.55;;;;;;;;;;6185750;23;20012;-46
2021/05/04 02:00:45;;;;;;;6.53;3.70;;;;;;;;;;6186075;23;20017;-47
2021/05/04 02:03:11;;;;;;;6.95;3.70;;;;;;;;;;6186626;23;20011;-47
2021/05/04 02:05:37;;;;;;;6.10;3.80;;;;;;;;;;6185943;23;20033;-47
2021/05/04 02:08:03;;;;;;;3.75;3.00;;;;;;;;;;6185648;23;20087;-47
2021/05/04 02:10:29;;;;;;;3.55;2.90;;;;;;;;;;6159436;23;20059;-47
2021/05/04 02:12:55;;;;;;;7.00;3.65;;;;;;;;;;6186211;23;20084;-47
2021/05/04 02:15:21;;;;;;;6.07;2.80;;;;;;;;;;6186328;23;20424;-46
2021/05/04 02:17:47;;;;;;;3.90;2.67;;;;;;;;;;6185814;23;20013;-47
2021/05/04 02:20:13;;;;;;;6.70;3.42;;;;;;;;;;6185686;23;20092;-47
2021/05/04 02:22:39;;;;;;;6.90;3.25;;;;;;;;;;6185815;23;20006;-48
2021/05/04 02:25:08;;;;;;;7.70;3.65;;;;;;;;;;6186381;23;20017;-46
2021/05/04 02:27:34;;;;;;;4.82;3.13;;;;;;;;;;6185884;23;20055;-47
2021/05/04 02:30:00;;;;;;;4.40;2.90;;;;;;;;;;6180096;23;20001;-47
2021/05/04 02:32:26;;;;;;;8.27;2.95;;;;;;;;;;6185270;23;20005;-46
2021/05/04 02:34:53;;;;;;;5.05;2.75;;;;;;;;;;6186126;23;19997;-47
2021/05/04 02:37:19;;;;;;;5.32;3.20;;;;;;;;;;6185356;23;20067;-47
2021/05/04 02:39:45;;;;;;;4.45;2.88;;;;;;;;;;6185361;23;20005;-46
2021/05/04 02:42:11;;;;;;;5.40;2.80;;;;;;;;;;6186208;23;20005;-47
2021/05/04 02:44:37;;;;;;;6.22;3.30;;;;;;;;;;6185710;23;20001;-47
2021/05/04 02:47:03;;;;;;;6.28;2.85;;;;;;;;;;6185524;23;20005;-47
2021/05/04 02:49:29;;;;;;;6.90;3.47;;;;;;;;;;6185724;23;20293;-47
2021/05/04 02:51:55;;;;;;;6.35;2.83;;;;;;;;;;6186229;23;20091;-46
2021/05/04 02:54:21;;;;;;;5.68;3.45;;;;;;;;;;6185315;23;19997;-47
2021/05/04 02:56:47;;;;;;;6.75;2.92;;;;;;;;;;6185827;23;20013;-47
2021/05/04 02:59:13;;;;;;;9.85;3.60;;;;;;;;;;6185656;23;20008;-47
2021/05/04 03:01:39;;;;;;;6.80;3.28;;;;;;;;;;6185825;23;20075;-47
2021/05/04 03:04:05;;;;;;;6.05;3.33;;;;;;;;;;6185360;23;20313;-47
2021/05/04 03:06:31;;;;;;;8.02;3.88;;;;;;;;;;6185517;23;20001;-47
2021/05/04 03:08:58;;;;;;;5.78;3.33;;;;;;;;;;6185536;23;20004;-48
2021/05/04 03:11:24;;;;;;;6.40;3.50;;;;;;;;;;6185793;23;20005;-46
2021/05/04 03:13:50;;;;;;;5.82;3.72;;;;;;;;;;6186096;23;19998;-47
2021/05/04 03:16:16;;;;;;;5.75;3.70;;;;;;;;;;6185175;23;20031;-47
2021/05/04 03:18:42;;;;;;;9.38;3.78;;;;;;;;;;6185218;23;20301;-47
2021/05/04 03:21:08;;;;;;;6.03;3.28;;;;;;;;;;6185367;23;20012;-47
2021/05/04 03:23:34;;;;;;;7.90;3.22;;;;;;;;;;6185934;23;20290;-47
2021/05/04 03:26:00;;;;;;;4.65;2.92;;;;;;;;;;6185143;23;20004;-47
2021/05/04 03:28:26;;;;;;;6.13;3.30;;;;;;;;;;6185123;23;20001;-47
2021/05/04 03:30:52;;;;;;;5.30;3.28;;;;;;;;;;6185409;23;20309;-47
2021/05/04 03:33:18;;;;;;;6.35;3.05;;;;;;;;;;6185748;23;20020;-47
2021/05/04 03:35:44;;;;;;;6.05;3.13;;;;;;;;;;6185643;23;20001;-46
2021/05/04 03:38:10;;;;;;;5.72;3.50;;;;;;;;;;6185452;23;20017;-47
2021/05/04 03:40:36;;;;;;;4.60;3.20;;;;;;;;;;6185366;23;19997;-47
2021/05/04 03:43:02;;;;;;;7.85;3.47;;;;;;;;;;6185532;23;20025;-47
2021/05/04 03:45:28;;;;;;;4.97;2.95;;;;;;;;;;6184763;23;20301;-47
2021/05/04 03:47:54;;;;;;;5.97;3.22;;;;;;;;;;6185440;23;20011;-47
2021/05/04 03:50:22;;;;;;;6.10;2.92;;;;;;;;;;6184889;23;20085;-47
2021/05/04 03:52:48;;;;;;;8.82;3.80;;;;;;;;;;6185377;23;20009;-46
2021/05/04 03:55:14;;;;;;;6.93;4.18;;;;;;;;;;6185566;23;20024;-46
2021/05/04 03:57:40;;;;;;;6.63;2.92;;;;;;;;;;6185612;23;20009;-47
2021/05/04 04:00:07;;;;;;;8.85;3.40;;;;;;;;;;6184681;23;20051;-48
2021/05/04 04:02:34;;;;;;;5.90;3.08;;;;;;;;;;6185516;23;20001;-47
2021/05/04 04:05:00;;;;;;;6.43;3.15;;;;;;;;;;6185668;23;20340;-47
2021/05/04 04:07:26;;;;;;;9.25;3.47;;;;;;;;;;6185297;23;20001;-47
2021/05/04 04:09:52;;;;;;;5.47;3.28;;;;;;;;;;6184537;23;20304;-47
2021/05/04 04:12:18;;;;;;;5.07;3.63;;;;;;;;;;6185416;23;20027;-47
2021/05/04 04:14:44;;;;;;;5.50;3.70;;;;;;;;;;6184981;23;20005;-47
2021/05/04 04:17:10;;;;;;;8.20;3.17;;;;;;;;;;6185044;23;20016;-47
2021/05/04 04:19:36;;;;;;;5.65;3.70;;;;;;;;;;6184997;23;20009;-47
2021/05/04 04:22:02;;;;;;;10.30;4.22;;;;;;;;;;6185342;23;20297;-47
2021/05/04 04:24:28;;;;;;;7.00;3.97;;;;;;;;;;6185251;23;20025;-47
2021/05/04 04:26:55;;;;;;;6.88;3.58;;;;;;;;;;6182301;23;20353;-46
2021/05/04 04:29:21;;;;;;;11.65;3.90;;;;;;;;;;6183867;23;20055;-47
2021/05/04 04:31:47;;;;;;;5.60;2.78;;;;;;;;;;6185712;23;20007;-46
2021/05/04 04:34:13;;;;;;;5.38;3.10;;;;;;;;;;6186979;23;20024;-47
2021/05/04 04:36:39;;;;;;;5.57;3.50;;;;;;;;;;6186782;23;20016;-47
2021/05/04 04:39:05;;;;;;;5.53;3.22;;;;;;;;;;6187064;23;20080;-47
2021/05/04 04:41:31;;;;;;;4.22;2.40;;;;;;;;;;6187157;23;20060;-47
2021/05/04 04:43:57;;;;;;;6.32;3.20;;;;;;;;;;6186587;23;20001;-47
2021/05/04 04:46:23;;;;;;;6.28;3.13;;;;;;;;;;6186653;23;20005;-47
2021/05/04 04:48:49;;;;;;;12.50;4.10;;;;;;;;;;6186938;23;20004;-47
2021/05/04 04:51:15;;;;;;;11.35;4.40;;;;;;;;;;6186617;23;20021;-47
2021/05/04 04:53:41;;;;;;;16.85;4.60;;;;;;;;;;6187253;23;20128;-46
2021/05/04 04:56:07;;;;;;;9.32;4.50;;;;;;;;;;6186793;23;20000;-47
2021/05/04 04:58:33;;;;;;;6.40;3.78;;;;;;;;;;6186527;23;20072;-46
2021/05/04 05:00:59;;;;;;;6.55;3.78;;;;;;;;;;6186656;23;20001;-46
2021/05/04 05:03:25;;;;;;;9.77;4.25;;;;;;;;;;6186691;23;20001;-47
2021/05/04 05:05:51;;;;;;;3.72;2.13;;;;;;;;;;6186664;23;20035;-47
2021/05/04 05:08:18;;;;;;;3.58;2.03;;;;;;;;;;6186818;23;20005;-47
2021/05/04 05:10:44;;;;;;;4.05;2.55;;;;;;;;;;6186463;23;20001;-47
2021/05/04 05:13:10;;;;;;;4.38;2.33;;;;;;;;;;6187196;23;20005;-47
2021/05/04 05:15:40;;;;;;;4.63;2.80;;;;;;;;;;6186496;23;20290;-47
2021/05/04 05:18:06;;;;;;;4.03;2.35;;;;;;;;;;6186928;23;20075;-47
2021/05/04 05:20:35;;;;;;;3.00;2.10;;;;;;;;;;6186042;23;20445;-46
2021/05/04 05:23:02;;;;;;;3.35;2.53;;;;;;;;;;6186151;23;20001;-47
2021/05/04 05:25:28;;;;;;;3.97;2.40;;;;;;;;;;6186312;23;20008;-47
2021/05/04 05:27:54;;;;;;;3.35;1.95;;;;;;;;;;6186911;23;20035;-46
2021/05/04 05:30:21;;;;;;;7.15;2.08;;;;;;;;;;6186667;23;20005;-47
2021/05/04 05:32:47;;;;;;;2.67;2.13;;;;;;;;;;6186321;23;20304;-47
2021/05/04 05:35:13;;;;;;;3.45;2.40;;;;;;;;;;6186204;23;20012;-47
2021/05/04 05:37:39;;;;;;;3.90;2.30;;;;;;;;;;6186308;23;20428;-47
2021/05/04 05:40:05;;;;;;;3.25;1.95;;;;;;;;;;6185610;23;20141;-47
2021/05/04 05:42:31;;;;;;;2.58;1.25;;;;;;;;;;6186362;23;20016;-47
2021/05/04 05:44:57;;;;;;;2.80;2.03;;;;;;;;;;6186691;23;20045;-47
2021/05/04 05:47:23;;;;;;;6.07;2.17;;;;;;;;;;6186490;23;20024;-48
2021/05/04 05:49:49;;;;;;;4.55;2.65;;;;;;;;;;6185910;23;20005;-47
2021/05/04 05:52:16;;;;;;;3.63;2.42;;;;;;;;;;6186578;23;20009;-47
2021/05/04 05:54:41;;;;;;;4.00;2.63;;;;;;;;;;6186694;23;20059;-47
2021/05/04 05:57:07;;;;;;;1.83;1.55;;;;;;;;;;6185794;23;20088;-47
2021/05/04 05:59:34;;;;;;;3.63;2.17;;;;;;;;;;6186057;23;20001;-46
2021/05/04 06:02:00;;;;;;;1.73;1.42;;;;;;;;;;6186607;23;20007;-47
2021/05/04 06:04:26;;;;;;;5.68;2.90;;;;;;;;;;6186339;23;20001;-47
2021/05/04 06:06:52;;;;;;;3.33;2.40;;;;;;;;;;6186543;23;20060;-47
2021/05/04 06:09:18;;;;;;;2.80;1.52;;;;;;;;;;6185687;23;20005;-47
2021/05/04 06:11:44;;;;;;;2.25;1.40;;;;;;;;;;6186286;23;20005;-47
2021/05/04 06:14:10;;;;;;;3.13;1.30;;;;;;;;;;6185967;23;20036;-47
2021/05/04 06:16:36;;;;;;;8.32;3.15;;;;;;;;;;6186062;23;20005;-46
2021/05/04 06:19:02;;;;;;;3.42;1.65;;;;;;;;;;6185273;23;20048;-46
2021/05/04 06:21:28;;;;;;;3.33;2.33;;;;;;;;;;6186430;23;20012;-47
2021/05/04 06:23:54;;;;;;;3.90;2.45;;;;;;;;;;6186171;23;20024;-47
2021/05/04 06:26:21;;;;;;;4.00;2.53;;;;;;;;;;6185663;23;20004;-46
2021/05/04 06:28:48;;;;;;;3.97;2.30;;;;;;;;;;6185629;23;20001;-47
2021/05/04 06:31:19;;;;;;;2.92;2.25;;;;;;;;;;6185939;23;20001;-48
2021/05/04 06:33:45;;;;;;;0.90;0.90;;;;;;;;;;6186147;23;20013;-47
2021/05/04 06:36:12;;;;;;;3.67;2.17;;;;;;;;;;6185884;23;20367;-47
2021/05/04 06:38:38;;;;;;;3.15;2.08;;;;;;;;;;6185348;23;20001;-46
2021/05/04 06:41:04;;;;;;;1.42;1.23;;;;;;;;;;6185833;23;20260;-47
2021/05/04 06:43:30;;;;;;;2.53;1.63;;;;;;;;;;6186089;23;20060;-48
2021/05/04 06:45:57;;;;;;;2.13;1.05;;;;;;;;;;6186313;23;20096;-47
2021/05/04 06:48:23;;;;;;;4.47;2.28;;;;;;;;;;6185693;23;20001;-47
2021/05/04 06:50:49;;;;;;;5.93;2.78;;;;;;;;;;6185038;23;20005;-47
2021/05/04 06:53:15;;;;;;;1.45;1.05;;;;;;;;;;6185992;23;20017;-47
2021/05/04 06:55:41;;;;;;;1.00;0.98;;;;;;;;;;6185635;23;20353;-48
2021/05/04 06:58:07;;;;;;;1.08;0.98;;;;;;;;;;6185359;23;20019;-47
2021/05/04 07:00:33;;;;;;;2.03;1.48;;;;;;;;;;6185784;23;20000;-47
2021/05/04 07:03:03;;;;;;;6.32;2.00;;;;;;;;;;6185755;23;20104;-48
2021/05/04 07:05:29;;;;;;;2.42;1.75;;;;;;;;;;6185499;23;20017;-48
2021/05/04 07:07:55;;;;;;;1.60;1.50;;;;;;;;;;6185462;23;20001;-47
2021/05/04 07:10:21;;;;;;;1.95;1.73;;;;;;;;;;6185240;23;20012;-48
2021/05/04 07:12:47;;;;;;;0.82;0.82;;;;;;;;;;6185523;23;20076;-47
2021/05/04 07:15:13;;;;;;;2.40;1.42;;;;;;;;;;6185814;23;19997;-48
2021/05/04 07:17:39;;;;;;;1.13;0.65;;;;;;;;;;6185702;23;20060;-48
2021/05/04 07:20:06;;;;;;;1.33;0.75;;;;;;;;;;6185351;23;20009;-47
2021/05/04 07:22:34;;;;;;;2.15;0.98;;;;;;;;;;6184626;23;20005;-48
2021/05/04 07:25:00;;;;;;;2.88;1.60;;;;;;;;;;6185184;23;20405;-47
2021/05/04 07:27:26;;;;;;;1.20;1.10;;;;;;;;;;6185581;23;20011;-48
2021/05/04 07:29:52;;;;;;;3.60;2.08;;;;;;;;;;6184895;23;20333;-47
2021/05/04 07:32:19;;;;;;;0.60;0.60;;;;;;;;;;6184983;23;20024;-48
2021/05/04 07:34:48;;;;;;;0.95;0.95;;;;;;;;;;6185512;23;20001;-47
2021/05/04 07:37:14;;;;;;;1.73;1.63;;;;;;;;;;6185754;23;20013;-47
2021/05/04 07:39:40;;;;;;;2.83;1.55;;;;;;;;;;6184862;23;20001;-46
2021/05/04 07:42:07;;;;;;;0.60;0.60;;;;;;;;;;6185263;23;20336;-47
2021/05/04 07:44:33;;;;;;;0.75;0.75;;;;;;;;;;6185789;23;20059;-48
2021/05/04 07:46:59;;;;;;;4.45;2.13;;;;;;;;;;6185312;23;20008;-47
2021/05/04 07:49:42;;;;;;;0.93;0.88;;;;;;;;;;6184455;23;20025;-47
2021/05/04 07:52:08;;;;;;;1.38;1.27;;;;;;;;;;6185548;23;20001;-47
2021/05/04 07:54:33;;;;;;;1.95;0.75;;;;;;;;;;6185283;23;20048;-47
2021/05/04 07:56:59;;;;;;;0.47;0.40;;;;;;;;;;6185706;23;20013;-47
2021/05/04 07:59:25;;;;;;;2.03;1.25;;;;;;;;;;6184922;23;20009;-46
2021/05/04 08:01:51;;;;;;;1.63;1.38;;;;;;;;;;6185030;23;20008;-48
2021/05/04 08:04:17;;;;;;;2.35;2.00;;;;;;;;;;6186103;23;20083;-46
2021/05/04 08:06:43;;;;;;;3.00;1.90;;;;;;;;;;6187607;23;20009;-47
2021/05/04 08:09:10;;;;;;;4.45;2.58;;;;;;;;;;6186979;23;20073;-46
2021/05/04 08:11:36;;;;;;;1.08;1.00;;;;;;;;;;6187700;23;20392;-47
2021/05/04 08:14:02;;;;;;;3.95;2.30;;;;;;;;;;6187007;23;20413;-47
2021/05/04 08:16:30;;;;;;;1.23;0.93;;;;;;;;;;6186951;23;20363;-46
2021/05/04 08:18:57;;;;;;;0.43;0.43;;;;;;;;;;6187037;23;20001;-46
2021/05/04 08:21:23;;;;;;;3.92;1.10;;;;;;;;;;6187560;23;20005;-48
2021/05/04 08:23:49;;;;;;;4.60;1.42;;;;;;;;;;6187380;23;20005;-46
2021/05/04 08:26:15;;;;;;;0.75;0.75;;;;;;;;;;6186762;23;20416;-48
2021/05/04 08:28:42;;;;;;;4.28;1.27;;;;;;;;;;6186484;23;20378;-46
2021/05/04 08:31:08;;;;;;;0.60;0.60;;;;;;;;;;6187474;23;20009;-47
2021/05/04 08:33:34;;;;;;;3.22;1.58;;;;;;;;;;6187410;23;20301;-48
2021/05/04 08:36:00;;;;;;;1.15;1.05;;;;;;;;;;6187166;23;19997;-47
2021/05/04 08:38:26;;;;;;;1.02;0.82;;;;;;;;;;6186428;23;20013;-47
2021/05/04 08:40:52;;;;;;;0.77;0.77;;;;;;;;;;6187160;23;20413;-47
2021/05/04 08:43:21;;;;;;;1.65;1.45;;;;;;;;;;6186761;23;19997;-47
2021/05/04 08:45:48;;;;;;;1.90;1.02;;;;;;;;;;6187140;23;20318;-46
2021/05/04 08:48:15;;;;;;;0.50;0.50;;;;;;;;;;6186887;23;20089;-47
2021/05/04 08:50:41;;;;;;;0.38;0.38;;;;;;;;;;6186664;23;20337;-47
2021/05/04 08:53:07;;;;;;;1.55;1.30;;;;;;;;;;6186947;23;20009;-48
2021/05/04 08:55:33;;;;;;;1.20;0.75;;;;;;;;;;6187287;23;19997;-47
2021/05/04 08:57:59;;;;;;;0.68;0.68;;;;;;;;;;6186465;23;20306;-47
2021/05/04 09:00:26;;;;;;;2.53;1.48;;;;;;;;;;6186662;23;20012;-47
2021/05/04 09:02:56;;;;;;;2.58;1.63;;;;;;;;;;6187206;23;20076;-47
2021/05/04 09:05:22;;;;;;;0.80;0.75;;;;;;;;;;6187310;23;20072;-47
2021/05/04 09:07:49;;;;;;;0.95;0.90;;;;;;;;;;6186991;23;20008;-47
2021/05/04 09:13:23;;;;;;;2.75;1.60;;;;;;;;;;6096831;23;20014;-47
2021/05/04 09:21:26;;;;;;;1.40;1.00;;;;;;;;;;6122741;23;20018;-48
2021/05/04 09:23:52;;;;;;;1.38;1.05;;;;;;;;;;6124614;23;19998;-47
2021/05/04 09:26:19;;;;;;;4.05;1.27;;;;;;;;;;6123735;23;20068;-47
2021/05/04 09:28:48;;;;;;;0.63;0.60;;;;;;;;;;6123668;23;20009;-46
2021/05/04 09:31:21;;;;;;;1.55;1.17;;;;;;;;;;6124746;23;20002;-47
2021/05/04 09:33:47;;;;;;;0.50;0.50;;;;;;;;;;6124485;23;19998;-47
2021/05/04 09:36:33;;;;;;;0.40;0.40;;;;;;;;;;6124033;23;20017;-46
2021/05/04 09:38:59;;;;;;;1.55;1.17;;;;;;;;;;6123853;23;20152;-47
2021/05/04 09:41:28;;;;;;;1.95;1.60;;;;;;;;;;6124618;23;20457;-47
2021/05/04 09:43:54;;;;;;;1.23;1.13;;;;;;;;;;6124259;23;20013;-47
2021/05/04 09:46:20;;;;;;;0.60;0.60;;;;;;;;;;6124340;23;20006;-48
2021/05/04 09:48:46;;;;;;;3.55;1.45;;;;;;;;;;6133940;23;19998;-47
2021/05/04 09:51:16;;;;;;;1.17;1.02;;;;;;;;;;6186151;23;20005;-48
2021/05/04 09:53:50;;;;;;;1.45;0.70;;;;;;;;;;6186657;23;19997;-46
2021/05/04 09:56:17;;;;;;;2.15;0.85;;;;;;;;;;6186314;23;20013;-47
2021/05/04 09:58:43;;;;;;;0.68;0.68;;;;;;;;;;6186178;23;20462;-48
2021/05/04 10:01:13;;;;;;;0.98;0.80;;;;;;;;;;6186485;23;20047;-47
2021/05/04 10:03:40;;;;;;;0.32;0.32;;;;;;;;;;6186805;23;20005;-47
2021/05/04 10:06:07;;;;;;;1.40;1.00;;;;;;;;;;6186306;23;20401;-48
2021/05/04 10:08:34;;;;;;;3.33;1.90;;;;;;;;;;6185998;23;20028;-48
2021/05/04 10:11:01;;;;;;;0.70;0.70;;;;;;;;;;6186374;23;20009;-48
2021/05/04 10:13:31;;;;;;;1.90;1.23;;;;;;;;;;6186395;23;20048;-47
2021/05/04 10:15:57;;;;;;;0.52;0.52;;;;;;;;;;6186512;23;20309;-47
2021/05/04 10:18:24;;;;;;;2.80;1.33;;;;;;;;;;6186145;23;20017;-47
2021/05/04 10:20:51;;;;;;;1.27;1.17;;;;;;;;;;6186415;23;20012;-46
2021/05/04 10:23:18;;;;;;;4.63;1.50;;;;;;;;;;6185217;23;20001;-48
2021/05/04 10:25:44;;;;;;;2.55;0.85;;;;;;;;;;6186082;23;20306;-47
2021/05/04 10:28:10;;;;;;;0.30;0.25;;;;;;;;;;6186147;23;20001;-47
2021/05/04 10:30:37;;;;;;;0.52;0.52;;;;;;;;;;6186109;23;20027;-47
2021/05/04 10:33:09;;;;;;;0.73;0.73;;;;;;;;;;6186028;23;20008;-47
2021/05/04 10:35:45;;;;;;;2.65;1.15;;;;;;;;;;6186106;23;20001;-48
2021/05/04 10:38:17;;;;;;;0.65;0.63;;;;;;;;;;6186242;23;20009;-47
2021/05/04 10:40:45;;;;;;;0.30;0.30;;;;;;;;;;6186175;23;20024;-47
2021/05/04 10:43:23;;;;;;;1.10;1.00;;;;;;;;;;6185898;23;20084;-48
2021/05/04 10:45:57;;;;;;;1.05;1.00;;;;;;;;;;6186391;23;20011;-47
2021/05/04 10:48:42;;;;;;;1.48;0.93;;;;;;;;;;6185403;23;20033;-47
2021/05/04 10:51:10;;;;;;;0.52;0.52;;;;;;;;;;6185870;23;20005;-47
2021/05/04 10:53:57;;;;;;;1.10;0.63;;;;;;;;;;6185781;23;20005;-47
2021/05/04 10:56:32;;;;;;;1.15;0.77;;;;;;;;;;6185800;23;20313;-47
2021/05/04 10:58:58;;;;;;;6.55;0.95;;;;;;;;;;6185460;23;20009;-47
2021/05/04 11:01:24;;;;;;;0.90;0.82;;;;;;;;;;6185676;23;20088;-48
2021/05/04 11:03:52;;;;;;;2.75;1.50;;;;;;;;;;6185634;23;20005;-47
2021/05/04 11:06:24;;;;;;;0.77;0.75;;;;;;;;;;6185789;23;19993;-47
2021/05/04 11:08:50;;;;;;;0.65;0.65;;;;;;;;;;6185471;23;20279;-48
2021/05/04 11:11:28;;;;;;;0.50;0.50;;;;;;;;;;6185999;23;20001;-47
2021/05/04 11:13:58;;;;;;;4.97;1.65;;;;;;;;;;6185744;23;20059;-46
2021/05/04 11:16:46;;;;;;;0.80;0.80;;;;;;;;;;6185445;23;20080;-47
2021/05/04 11:19:16;;;;;;;2.28;1.27;;;;;;;;;;6185022;23;20044;-48
2021/05/04 11:21:48;;;;;;;1.02;0.77;;;;;;;;;;6186009;23;20076;-47
2021/05/04 11:24:18;;;;;;;3.08;1.42;;;;;;;;;;6186041;23;20007;-47
2021/05/04 11:26:56;;;;;;;2.60;1.60;;;;;;;;;;6185325;23;20001;-46
2021/05/04 11:29:23;;;;;;;0.55;0.55;;;;;;;;;;6185301;23;20001;-47
2021/05/04 11:31:50;;;;;;;0.85;0.85;;;;;;;;;;6185405;23;20436;-48
2021/05/04 11:34:35;;;;;;;0.50;0.50;;;;;;;;;;6185573;23;20028;-47
2021/05/04 11:37:02;;;;;;;0.70;0.70;;;;;;;;;;6184913;23;20016;-47
2021/05/04 11:39:28;;;;;;;1.65;0.80;;;;;;;;;;6184603;23;20270;-47
2021/05/04 11:41:57;;;;;;;0.52;0.50;;;;;;;;;;6185247;23;20309;-47
2021/05/04 11:44:33;;;;;;;1.17;1.07;;;;;;;;;;6185668;23;20324;-47
2021/05/04 11:47:18;;;;;;;0.65;0.65;;;;;;;;;;6185476;23;20060;-46
2021/05/04 11:49:45;;;;;;;0.73;0.50;;;;;;;;;;6185352;23;20028;-47
2021/05/04 11:52:13;;;;;;;2.28;1.67;;;;;;;;;;6185268;23;20028;-47
2021/05/04 11:54:39;;;;;;;1.55;0.73;;;;;;;;;;6185884;23;20001;-48
2021/05/04 11:57:05;;;;;;;1.35;0.63;;;;;;;;;;6185465;23;20064;-48
2021/05/04 11:59:31;;;;;;;3.05;1.52;;;;;;;;;;6185170;23;20301;-47
2021/05/04 12:01:57;;;;;;;0.30;0.30;;;;;;;;;;6185249;23;20518;-47
2021/05/04 12:04:43;;;;;;;1.33;0.80;;;;;;;;;;6185730;23;20005;-48
2021/05/04 12:07:09;;;;;;;2.10;1.10;;;;;;;;;;6174272;23;20073;-47
2021/05/04 12:09:36;;;;;;;3.28;0.93;;;;;;;;;;6185303;23;20012;-47
2021/05/04 12:12:14;;;;;;;1.73;1.17;;;;;;;;;;6185152;23;20297;-46
2021/05/04 12:14:56;;;;;;;4.60;1.92;;;;;;;;;;6185496;23;20062;-47
2021/05/04 12:17:26;;;;;;;0.88;0.77;;;;;;;;;;6185116;23;20312;-47
2021/05/04 12:19:52;;;;;;;0.67;0.67;;;;;;;;;;6184661;23;20432;-48
2021/05/04 12:22:18;;;;;;;0.52;0.52;;;;;;;;;;6185512;23;20008;-48
2021/05/04 12:24:45;;;;;;;1.65;1.17;;;;;;;;;;6185124;23;20001;-48
2021/05/04 12:27:11;;;;;;;0.50;0.50;;;;;;;;;;6184857;23;20052;-47
2021/05/04 12:29:37;;;;;;;2.47;1.27;;;;;;;;;;6185240;23;20001;-48
2021/05/04 12:32:03;;;;;;;0.68;0.68;;;;;;;;;;6185492;23;20009;-47
2021/05/04 12:34:29;;;;;;;1.60;1.20;;;;;;;;;;6185664;23;19997;-48
2021/05/04 12:36:58;;;;;;;5.47;1.40;;;;;;;;;;6184224;23;20088;-47
2021/05/04 12:39:28;;;;;;;0.47;0.47;;;;;;;;;;6184871;23;20008;-48
2021/05/04 12:41:55;;;;;;;;;;;;;;;;;;6185911;23;20005;-47
2021/05/04 12:44:26;;;;;;;0.75;0.75;;;;;;;;;;6185220;23;20276;-47
2021/05/04 12:46:51;;;;;;;;;;;;;;;;;;6185227;23;20001;-47
2021/05/04 12:49:18;;;;;;;0.88;0.70;;;;;;;;;;6185302;23;19900;-48
2021/05/04 12:51:54;;;;;;;4.13;1.42;;;;;;;;;;6186590;23;20040;-46
2021/05/04 12:54:21;;;;;;;0.73;0.73;;;;;;;;;;6187173;23;20004;-47
2021/05/04 12:56:48;;;;;;;0.70;0.68;;;;;;;;;;6186581;23;20005;-48
2021/05/04 12:59:14;;;;;;;2.05;1.23;;;;;;;;;;6186827;23;20108;-47
2021/05/04 13:01:40;;;;;;;2.15;0.95;;;;;;;;;;6187056;23;20001;-48
2021/05/04 13:04:15;;;;;;;1.45;1.05;;;;;;;;;;6186537;23;19997;-48
2021/05/04 13:06:48;;;;;;;0.50;0.50;;;;;;;;;;6187308;23;20063;-46
2021/05/04 13:09:26;;;;;;;0.55;0.55;;;;;;;;;;6186870;23;20006;-47
2021/05/04 13:30:50;;;;;;;1.45;1.13;;;;;;;;;;6186587;23;20009;-46
2021/05/04 13:33:17;;;;;;;0.80;0.80;;;;;;;;;;6186417;23;20005;-46
2021/05/04 13:35:56;;;;;;;0.77;0.73;;;;;;;;;;6186980;23;20031;-48
2021/05/04 13:49:21;;;;;;;1.30;1.20;;;;;;;;;;6186070;23;20060;-47
2021/05/04 13:51:47;;;;;;;1.10;0.80;;;;;;;;;;6186662;23;20009;-46
2021/05/04 13:54:13;;;;;;;1.88;0.93;;;;;;;;;;6186398;23;19997;-47
2021/05/04 13:56:39;;;;;;;1.40;1.30;;;;;;;;;;6186477;23;20012;-48
2021/05/04 13:59:05;;;;;;;0.70;0.70;;;;;;;;;;6186207;23;20005;-46
2021/05/04 14:01:36;;;;;;;0.63;0.63;;;;;;;;;;6185784;23;20072;-46
2021/05/04 14:14:54;;;;;;;1.83;1.38;;;;;;;;;;6186307;23;20019;-47
2021/05/04 14:24:47;;;;;;;2.92;1.38;;;;;;;;;;6184592;23;20024;-47
2021/05/04 14:27:44;;;;;;;2.20;1.33;;;;;;;;;;6186178;23;20067;-46
2021/05/04 14:30:10;;;;;;;1.48;1.38;;;;;;;;;;6185735;23;20079;-48
2021/05/04 14:32:37;;;;;;;2.33;1.15;;;;;;;;;;6185822;23;20066;-48
2021/05/04 14:35:06;;;;;;;3.63;1.45;;;;;;;;;;6186204;23;20044;-47
2021/05/04 14:53:57;;;;;;;1.65;0.70;;;;;;;;;;6185695;23;20027;-47
2021/05/04 14:59:14;;;;;;;1.88;0.93;;;;;;;;;;6185480;23;20020;-47
2021/05/04 15:01:44;;;;;;;1.00;0.90;;;;;;;;;;6185867;23;20025;-48
2021/05/04 15:04:10;;;;;;;0.40;0.40;;;;;;;;;;6185698;23;20016;-48
2021/05/04 15:06:36;;;;;;;2.55;1.38;;;;;;;;;;6185485;23;20012;-47
2021/05/04 15:09:07;;;;;;;0.85;0.77;;;;;;;;;;6185085;23;20007;-48
2021/05/04 15:11:33;;;;;;;0.30;0.30;;;;;;;;;;6185330;23;20356;-48
2021/05/04 15:13:59;;;;;;;1.13;0.52;;;;;;;;;;6185402;23;19997;-47
2021/05/04 15:24:06;;;;;;;5.28;1.52;;;;;;;;;;6156147;23;20041;-47
2021/05/04 15:26:32;;;;;;;1.10;1.00;;;;;;;;;;6156226;23;20383;-47
2021/05/04 15:28:58;;;;;;;1.75;1.15;;;;;;;;;;6155125;23;20433;-47
2021/05/04 15:31:27;;;;;;;2.03;1.42;;;;;;;;;;6155567;23;20305;-47
2021/05/04 15:33:54;;;;;;;3.80;1.17;;;;;;;;;;6155063;23;20432;-48
2021/05/04 15:36:22;;;;;;;2.15;1.20;;;;;;;;;;6155738;23;20009;-46
2021/05/04 15:38:49;;;;;;;1.02;1.02;;;;;;;;;;6155255;23;20014;-46
2021/05/04 15:41:15;;;;;;;3.22;1.17;;;;;;;;;;6155912;23;20002;-47
2021/05/04 15:43:46;;;;;;;4.22;1.55;;;;;;;;;;6155058;23;20413;-46
2021/05/04 15:51:25;;;;;;;2.28;1.20;;;;;;;;;;6155849;23;20398;-47
2021/05/04 16:02:11;;;;;;;7.07;1.85;;;;;;;;;;6155434;23;20021;-47
2021/05/04 16:07:43;;;;;;;1.60;1.20;;;;;;;;;;6094944;23;19905;-47
2021/05/04 16:10:09;;;;;;;4.28;1.90;;;;;;;;;;6144487;23;20025;-47
2021/05/04 16:12:35;;;;;;;2.28;1.77;;;;;;;;;;6155669;23;20080;-47
2021/05/04 16:15:01;;;;;;;2.00;1.63;;;;;;;;;;6155462;23;20010;-47
2021/05/04 16:17:28;;;;;;;4.70;1.30;;;;;;;;;;6155416;23;20045;-47
2021/05/04 16:19:54;;;;;;;2.35;1.90;;;;;;;;;;6165878;23;20405;-47
2021/05/04 16:22:46;;;;;;;4.00;1.60;;;;;;;;;;6185745;23;20009;-47
2021/05/04 16:25:12;;;;;;;1.35;1.25;;;;;;;;;;6185482;23;20337;-48